Hlavní strana
METAR-TAF:

METAR-TAF

Letiště :

Wallis, Francie

zeměpisná šířka: 13-14S, zeměpisná délka: 176-10W, výška: 23 m

METAR: chybějící

Čas: 12:22 (00:22 UTC)

Předpověď počasí

Zpráva byla vytvořena před 1 hodinou a 22 minutami, v 23:00 UTC
Předpověď platná od 18 v 00 UTC do 18 v 24 UTC
Východní vítr 8 kt
Viditelnost 10 km a více
Polojasno ve výšce 2000 ft
Dočasný
od 18 v 00 UTC do 18 v 09 UTC
Viditelnost: 4000 m
Oblačno až skoro zataženo ve výšce 1400 ft
Skoro jasno ve výšce 1800 ft, Cumulonimbus.
dešťové přeháňky
Dočasný
od 18 v 22 UTC do 18 v 24 UTC
Viditelnost: 4000 m
Skoro jasno ve výšce 2000 ft, Vertikální cumulus.
dešťové přeháňky

TAF: NLWW 172300Z 1800/1824 10008KT 9999 SCT020 TEMPO 1800/1809 4000 SHRA BKN014 FEW018CB TEMPO 1822/1824 4000 SHRA FEW020TCU

Stav a předpovědi počasí z více než 4 000 letišť (zprávy METAR a TAF).

Červené a žluté tečky na mapě představují dostupné meteorologické stanice.

Když kurzor umístíte na tečku, zobrazí se název stanice.

Pak kliknutím zobrazíte stav a předpověď počasí.

Chcete-li změnit mapu, kliknutím na zelené tlačítko se znaménkem +mapu přiblížíte, kliknutím na zelené tlačítko se znaménkem – mapu oddálíte a kliknutím na zelené šipky přejdete na sousední mapy.


METAR-TAF: